Latest Weather Observations for Proserpine

IDQ60801

Issued at 9:52 pm EST Thursday 21 November 2019 (issued every 10 minutes, with the page automatically refreshed every 10 minutes)

About weather observations | Map of weather stations | Latest weather observations for QLD | Other Formats
Station Details ID: 033247 Name: PROSERPINE AIRPORT Lat: -20.49 Lon: 148.56 Height: 19.7 m
Data from the previous 72 hours. | See also: Recent months at Proserpine
Date/Time
EST
Temp
°C
App
Temp
°C
Dew
Point
°C
Rel
Hum
%
Delta-T
°C
Wind Press
QNH
hPa
Press
MSL
hPa
Rain since
9am
mm
Dir  Spd
km/h
Gust
km/h
Spd
kts
Gust
kts
21/09:30pm 23.5 24.0 17.5 69 3.7 E 11 15 6 8 1015.0 1014.9 0.0
21/09:00pm 23.7 24.4 17.9 70 3.6 E 11 19 6 10 1014.6 1014.5 0.0
21/08:30pm 23.9 24.1 17.6 68 3.9 E 13 17 7 9 1014.3 1014.2 0.0
21/08:00pm 24.0 23.8 17.5 67 4.0 ESE 15 22 8 12 1014.1 1014.0 0.0
21/07:30pm 24.1 24.4 17.8 68 3.9 ESE 13 20 7 11 1013.8 1013.7 0.0
21/07:00pm 24.6 24.7 18.3 68 4.0 E 15 22 8 12 1013.6 1013.5 0.0
21/06:30pm 25.0 24.5 17.7 64 4.6 E 17 26 9 14 1013.4 1013.3 0.0
21/06:00pm 25.6 24.3 16.7 58 5.5 E 19 32 10 17 1013.3 1013.2 0.0
21/05:30pm 26.3 24.1 16.8 56 5.9 E 24 30 13 16 1013.1 1013.0 0.0
21/05:00pm 26.7 24.5 17.8 58 5.6 E 26 35 14 19 1012.8 1012.7 0.0
21/04:30pm 27.4 25.2 17.8 55 6.1 E 26 37 14 20 1012.6 1012.5 0.0
21/04:00pm 27.7 25.5 17.8 54 6.3 E 26 41 14 22 1012.6 1012.5 0.0
21/03:30pm 28.4 26.4 18.2 54 6.5 E 26 41 14 22 1012.7 1012.6 0.0
21/03:00pm 28.5 26.1 18.3 54 6.5 E 28 39 15 21 1012.7 1012.6 0.0
21/02:30pm 29.5 27.8 18.9 53 6.9 E 26 39 14 21 1012.7 1012.6 0.0
21/02:00pm 30.1 28.3 18.8 50 7.3 ESE 26 37 14 20 1012.9 1012.8 0.0
21/01:30pm 30.7 28.1 15.9 40 9.2 E 24 35 13 19 1013.0 1012.9 0.0
21/01:00pm 30.6 27.3 15.1 39 9.5 ESE 26 39 14 21 1013.2 1013.1 0.0
21/12:30pm 30.9 27.8 14.5 37 10.0 ESE 24 35 13 19 1013.7 1013.6 0.0
21/12:00pm 30.2 27.8 17.3 46 8.2 ESE 26 39 14 21 1014.0 1013.9 0.0
21/11:30am 30.7 29.2 17.7 45 8.3 ESE 22 41 12 22 1014.3 1014.2 0.0
21/11:00am 29.5 28.0 18.6 52 7.0 SE 24 35 13 19 1014.5 1014.4 0.0
21/10:30am 28.7 28.1 18.8 55 6.4 E 20 30 11 16 1014.7 1014.6 0.0
21/10:00am 28.3 27.2 17.8 53 6.7 ESE 20 35 11 19 1014.9 1014.8 0.0
21/09:30am 27.8 27.4 18.8 58 5.8 ESE 19 24 10 13 1015.1 1015.0 0.0
21/09:00am 27.9 27.9 18.0 55 6.3 E 15 24 8 13 1015.2 1015.1 0.0
21/08:30am 27.5 27.9 19.0 59 5.5 E 15 20 8 11 1015.3 1015.2 0.0
21/08:00am 27.1 28.2 19.7 64 4.8 ESE 13 22 7 12 1015.1 1015.0 0.0
21/07:30am 24.9 26.9 19.9 74 3.2 S 9 11 5 6 1015.0 1014.9 0.0
21/07:00am 22.8 25.1 19.8 83 1.9 SSW 7 9 4 5 1014.7 1014.6 0.0
21/06:30am 20.5 23.8 19.2 92 0.8 CALM 0 0 0 0 1014.2 1014.1 0.0
21/06:00am 18.5 20.6 17.2 92 0.8 SW 2 6 1 3 1013.8 1013.7 0.0
21/05:30am 19.1 20.6 18.1 94 0.6 S 7 9 4 5 1013.4 1013.3 0.0
21/05:00am 19.3 21.2 18.5 95 0.5 SSW 6 9 3 5 1013.2 1013.1 0.0
21/04:30am 18.1 20.5 17.0 93 0.7 CALM 0 4 0 2 1012.9 1012.8 0.0
21/04:00am 17.9 19.1 16.8 93 0.7 WSW 6 7 3 4 1012.6 1012.5 0.0
21/03:30am 18.2 19.3 16.7 91 0.9 SSW 6 7 3 4 1012.4 1012.3 0.0
21/03:00am 18.6 19.9 17.1 91 0.9 SSW 6 7 3 4 1012.2 1012.1 0.0
21/02:30am 18.5 19.6 16.5 88 1.2 SW 6 7 3 4 1012.2 1012.1 0.0
21/02:00am 19.3 20.7 17.4 89 1.2 SW 6 7 3 4 1012.2 1012.1 0.0
21/01:30am 20.2 22.1 18.9 92 0.8 SSW 7 7 4 4 1012.5 1012.4 0.0
21/01:00am 19.3 20.7 17.4 89 1.2 SSW 6 7 3 4 1012.6 1012.5 0.0
21/12:30am 19.9 21.0 18.0 89 1.2 SSW 9 9 5 5 1012.8 1012.7 0.0
21/12:00am 19.7 22.3 17.5 87 1.3 CALM 0 0 0 0 1013.1 1013.0 0.0
 
Date/Time
EST
Temp
°C
App
Temp
°C
Dew
Point
°C
Rel
Hum
%
Delta-T
°C
Wind Press
QNH
hPa
Press
MSL
hPa
Rain since
9am
mm
Dir  Spd
km/h
Gust
km/h
Spd
kts
Gust
kts
20/11:30pm 19.5 21.9 17.1 86 1.5 CALM 0 0 0 0 1013.3 1013.2 0.0
20/11:00pm 20.2 22.7 17.2 83 1.8 CALM 0 0 0 0 1013.7 1013.6 0.0
20/10:30pm 20.8 23.4 17.6 82 2.0 CALM 0 0 0 0 1013.8 1013.7 0.0
20/10:00pm 22.1 25.0 18.3 79 2.4 CALM 0 0 0 0 1013.9 1013.8 0.0
20/09:30pm 23.0 25.2 19.6 81 2.2 ESE 7 11 4 6 1013.6 1013.5 0.0
20/09:00pm 22.9 25.9 18.4 76 2.8 CALM 0 0 0 0 1013.3 1013.2 0.0
20/08:30pm 23.2 26.1 18.3 74 3.1 CALM 0 0 0 0 1013.0 1012.9 0.0
20/08:00pm 23.1 24.7 18.2 74 3.1 ESE 7 9 4 5 1012.8 1012.7 0.0
20/07:30pm 23.7 24.8 17.9 70 3.6 ESE 9 11 5 6 1012.6 1012.5 0.0
20/07:00pm 24.7 25.5 17.4 64 4.5 E 9 13 5 7 1012.3 1012.2 0.0
20/06:30pm 25.6 25.3 16.5 57 5.6 ESE 13 15 7 8 1011.8 1011.7 0.0
20/06:00pm 27.2 26.9 17.4 55 6.2 ESE 15 22 8 12 1011.4 1011.3 0.0
20/05:30pm 28.3 27.4 17.8 53 6.7 ESE 19 24 10 13 1010.9 1010.8 0.0
20/05:00pm 29.3 28.5 18.4 51 7.0 ESE 20 28 11 15 1010.3 1010.2 0.0
20/04:30pm 30.4 29.1 18.2 48 7.8 E 22 30 12 16 1010.0 1009.9 0.0
20/04:00pm 31.3 29.6 17.2 42 9.0 E 22 32 12 17 1009.5 1009.4 0.0
20/03:30pm 31.9 30.0 16.6 39 9.7 E 22 32 12 17 1009.5 1009.4 0.0
20/03:00pm 33.7 30.7 14.7 32 11.7 ESE 24 32 13 17 1009.6 1009.5 0.0
20/02:30pm 34.1 32.5 15.1 32 11.8 E 17 26 9 14 1009.8 1009.7 0.0
20/02:00pm 34.0 32.6 15.5 33 11.6 E 17 30 9 16 1010.0 1009.9 0.0
20/01:30pm 33.2 32.9 18.2 41 9.7 E 17 28 9 15 1010.2 1010.1 0.0
20/01:00pm 32.6 32.2 18.0 41 9.4 E 17 22 9 12 1010.7 1010.6 0.0
20/12:30pm 32.2 32.1 18.8 45 8.7 E 17 28 9 15 1011.2 1011.1 0.0
20/12:00pm 32.3 32.0 19.2 46 8.6 SE 19 28 10 15 1011.5 1011.4 0.0
20/11:30am 31.8 32.9 18.0 43 8.9 SE 9 20 5 11 1011.7 1011.6 0.0
20/11:00am 31.0 31.9 18.4 47 8.1 ESE 11 22 6 12 1012.1 1012.0 0.0
20/10:30am 30.9 31.4 18.3 47 8.1 ESE 13 20 7 11 1012.5 1012.4 0.0
20/10:00am 30.5 31.2 17.9 47 8.1 ESE 11 19 6 10 1012.9 1012.8 0.0
20/09:30am 28.8 29.6 17.3 49 7.3 E 9 22 5 12 1013.2 1013.1 0.0
20/09:00am 28.1 29.8 18.5 56 6.1 N 7 15 4 8 1013.6 1013.5 0.0
20/08:30am 27.6 29.7 18.9 59 5.6 SE 6 11 3 6 1013.7 1013.6 0.0
20/08:00am 27.0 28.8 19.6 64 4.8 SE 9 15 5 8 1013.7 1013.6 0.0
20/07:30am 26.0 28.3 19.9 69 4.0 SSE 7 15 4 8 1013.7 1013.6 0.0
20/07:00am 24.3 26.7 20.0 77 2.8 SSW 7 9 4 5 1013.6 1013.5 0.0
20/06:30am 21.6 24.0 19.7 89 1.2 SSW 6 7 3 4 1013.3 1013.2 0.0
20/06:00am 19.9 22.1 19.1 95 0.5 SSW 6 9 3 5 1013.0 1012.9 0.0
20/05:30am 18.9 20.6 18.1 95 0.5 SSW 6 7 3 4 1012.7 1012.6 0.0
20/05:00am 19.2 20.9 18.4 95 0.5 SSW 7 9 4 5 1012.2 1012.1 0.0
20/04:57am 19.1 20.7 18.3 95 0.5 SSW 7 9 4 5 1012.2 1012.1 0.0
20/04:38am 19.2 21.0 18.4 95 0.5 SSW 6 7 3 4 1012.1 1012.0 0.0
20/04:30am 18.8 21.4 17.6 93 0.7 CALM 0 7 0 4 1012.0 1011.9 0.0
20/04:00am 18.9 20.5 17.9 94 0.6 SW 6 6 3 3 1011.9 1011.8 0.0
20/03:30am 18.3 19.9 16.8 91 0.9 SW 4 7 2 4 1011.9 1011.8 0.0
20/03:00am 19.5 21.3 18.7 95 0.5 SSW 7 9 4 5 1011.8 1011.7 0.0
20/02:30am 19.4 21.2 18.2 93 0.7 SSW 6 7 3 4 1012.0 1011.9 0.0
20/02:00am 20.0 22.0 18.8 93 0.8 SSW 6 7 3 4 1012.2 1012.1 0.0
20/01:30am 19.9 21.6 18.6 92 0.8 SSW 7 7 4 4 1012.4 1012.3 0.0
20/01:00am 19.8 22.7 18.3 91 0.9 CALM 0 0 0 0 1012.8 1012.7 0.0
20/12:30am 20.3 23.4 18.6 90 1.1 CALM 0 0 0 0 1013.2 1013.1 0.0
20/12:00am 20.5 23.5 18.4 88 1.3 CALM 0 0 0 0 1013.5 1013.4 0.0
 
Date/Time
EST
Temp
°C
App
Temp
°C
Dew
Point
°C
Rel
Hum
%
Delta-T
°C
Wind Press
QNH
hPa
Press
MSL
hPa
Rain since
9am
mm
Dir  Spd
km/h
Gust
km/h
Spd
kts
Gust
kts
19/11:30pm 20.8 23.8 18.4 86 1.5 CALM 0 0 0 0 1013.6 1013.5 0.0
19/11:00pm 21.3 24.5 18.9 86 1.5 CALM 0 0 0 0 1013.9 1013.8 0.0
19/10:30pm 21.6 24.7 18.6 83 1.9 CALM 0 0 0 0 1014.0 1013.9 0.0
19/10:00pm 22.2 24.7 19.0 82 2.0 ESE 4 7 2 4 1014.1 1014.0 0.0
19/09:30pm 22.8 24.9 19.4 81 2.2 SE 7 9 4 5 1013.9 1013.8 0.0
19/09:00pm 23.4 26.9 19.5 79 2.5 CALM 0 0 0 0 1013.7 1013.6 0.0
19/08:30pm 23.7 25.9 19.6 78 2.6 E 7 9 4 5 1013.4 1013.3 0.0
19/08:00pm 24.0 26.2 19.5 76 2.9 E 7 11 4 6 1013.2 1013.1 0.0
19/07:30pm 24.4 26.2 19.5 74 3.1 ESE 9 13 5 7 1012.8 1012.7 0.0
19/07:00pm 25.2 26.5 19.3 70 3.8 E 11 15 6 8 1012.5 1012.4 0.0
19/06:30pm 26.1 26.7 18.5 63 4.8 ESE 13 19 7 10 1012.1 1012.0 0.0
19/06:00pm 27.2 27.0 18.5 59 5.6 ESE 17 22 9 12 1011.6 1011.5 0.0
19/05:30pm 28.1 26.8 17.3 52 6.8 ESE 20 26 11 14 1011.0 1010.9 0.0
19/05:00pm 29.1 27.6 17.6 50 7.3 ESE 22 35 12 19 1010.5 1010.4 0.0
19/04:30pm 30.0 28.6 18.8 51 7.2 ESE 24 32 13 17 1010.2 1010.1 0.0
19/04:00pm 30.0 28.6 18.8 51 7.3 ESE 24 32 13 17 1010.1 1010.0 0.0
19/03:30pm 30.9 30.2 18.6 48 8.0 ESE 20 33 11 18 1010.3 1010.2 0.0
19/03:00pm 31.4 30.0 18.0 44 8.6 E 22 30 12 16 1010.4 1010.3 0.0
19/02:30pm 30.8 29.5 18.2 47 8.1 E 22 28 12 15 1010.7 1010.6 0.0
19/02:00pm 31.3 30.2 18.6 46 8.2 E 22 37 12 20 1011.0 1010.9 0.0
19/01:30pm 31.4 30.3 19.4 49 7.9 ESE 24 39 13 21 1011.4 1011.3 0.0
19/01:00pm 30.8 29.6 19.2 50 7.6 ESE 24 35 13 19 1011.7 1011.6 0.0
19/12:30pm 30.8 30.3 19.2 50 7.6 E 20 32 11 17 1012.2 1012.1 0.0
19/12:00pm 30.9 30.5 19.3 50 7.6 E 20 32 11 17 1012.6 1012.5 0.0
19/11:30am 30.9 30.1 19.3 50 7.6 ESE 22 35 12 19 1013.0 1012.9 0.0
19/11:00am 30.7 30.5 19.4 51 7.4 E 19 28 10 15 1013.3 1013.2 0.0
19/10:30am 30.4 30.2 19.7 52 7.0 ESE 20 28 11 15 1013.7 1013.6 0.0
19/10:00am 29.3 29.4 19.9 57 6.2 ESE 19 28 10 15 1014.2 1014.1 0.0
19/09:30am 29.2 29.8 19.5 56 6.3 ESE 15 24 8 13 1014.4 1014.3 0.0
19/09:00am 27.8 28.7 19.3 60 5.5 E 13 19 7 10 1014.6 1014.5 0.0
19/08:30am 28.6 30.3 20.1 60 5.6 E 11 19 6 10 1014.6 1014.5 0.0
19/08:00am 27.7 29.8 21.0 67 4.4 NE 11 17 6 9 1014.5 1014.4 0.0
19/07:30am 26.7 29.1 20.8 70 3.9 E 9 17 5 9 1014.3 1014.2 0.0
19/07:00am 25.1 28.1 21.2 79 2.6 S 7 9 4 5 1014.1 1014.0 0.0
19/06:30am 22.8 25.7 21.1 90 1.1 SSW 7 11 4 6 1013.8 1013.7 0.0
19/06:00am 21.2 23.8 20.4 95 0.5 SSW 7 9 4 5 1013.5 1013.4 0.0
19/05:30am 20.1 22.2 19.3 95 0.5 SSW 7 7 4 4 1013.2 1013.1 0.0
19/05:00am 19.1 21.4 17.6 91 0.9 SW 2 6 1 3 1013.0 1012.9 0.0
19/04:30am 19.7 21.5 18.4 92 0.8 SSW 6 7 3 4 1012.8 1012.7 0.0
19/04:00am 20.6 24.1 19.6 94 0.6 CALM 0 0 0 0 1012.7 1012.6 0.0
19/03:30am 20.7 24.2 19.5 93 0.8 CALM 0 0 0 0 1012.5 1012.4 0.0
19/03:00am 21.0 24.7 20.0 94 0.6 CALM 0 0 0 0 1012.7 1012.6 0.0
19/02:30am 21.2 23.8 20.0 93 0.8 SSW 6 7 3 4 1012.6 1012.5 0.0
19/02:00am 21.1 23.6 19.9 93 0.8 SSW 6 9 3 5 1012.7 1012.6 0.0
19/01:30am 21.1 23.4 19.9 93 0.8 S 7 7 4 4 1013.1 1013.0 0.0
19/01:00am 21.1 24.2 19.6 91 1.0 SE 2 7 1 4 1013.3 1013.2 0.0
19/12:30am 21.5 25.0 19.6 89 1.2 CALM 0 0 0 0 1013.6 1013.5 0.0
19/12:00am 21.9 25.5 19.8 88 1.3 CALM 0 0 0 0 1013.8 1013.7 0.0
 
Date/Time
EST
Temp
°C
App
Temp
°C
Dew
Point
°C
Rel
Hum
%
Delta-T
°C
Wind Press
QNH
hPa
Press
MSL
hPa
Rain since
9am
mm
Dir  Spd
km/h
Gust
km/h
Spd
kts
Gust
kts
18/11:30pm 22.5 26.3 20.2 87 1.5 CALM 0 0 0 0 1014.1 1014.0 0.0
18/11:00pm 23.0 26.9 20.3 85 1.7 CALM 0 0 0 0 1014.3 1014.2 0.0
18/10:30pm 22.9 26.7 20.2 85 1.7 CALM 0 0 0 0 1014.6 1014.5 0.0
18/10:00pm 23.4 26.2 20.5 84 1.9 ESE 6 6 3 3 1014.5 1014.4 0.0

Other formats

Comma delimited format used in spreadsheet applications
http://www.bom.gov.au/fwo/IDQ60801/IDQ60801.94365.axf

JavaScript Object Notation format (JSON) in row-major order
http://www.bom.gov.au/fwo/IDQ60801/IDQ60801.94365.json

Data quality

Most of these data are generated automatically and are frequently updated. Quality checks on data are not normally performed. It is possible for incorrect values to appear. Refer to information at About Latest Weather Observations and please check the disclaimer before using these data.